EKSB

Details ICAO EKSB (SGD)
Name Sonderborg
Region Denmark / Faroe Islands
Timezone Europe/Copenhagen (UTC+1.0)
Plans Departing 42
Arriving 52
Stats Elevation 23 ft / 7 m (AMSL)
Location 54.962800° 9.794010°
Runways 1
Magnetic Variation 2.886° E
Sunrise 2018-12-13 07:38:39 UTC / 2018-12-13 08:38:39 Local
Sunset 2018-12-13 14:53:58 UTC / 2018-12-13 15:53:58 Local
Advertisement - Login to hide

Runways

ID Width Length Bearing (true/mag) Surface Threshold Overrun Markings Lighting
14 98 ft / 30 m 5,883 ft / 1,793 m 139.41° / 136.53° ASPHALT 0 ft / 0 m 0 ft / 0 m APP EDGE THRESHOLD SSALF REIL-UNI
32 98 ft / 30 m 5,883 ft / 1,793 m 319.43° / 316.54° ASPHALT 0 ft / 0 m 0 ft / 0 m PREC-APP EDGE THRESHOLD ALSF-I REIL-UNI

Approach Navaids

Runway Type Ident Frequency Range Bearing (true/mag) Slope Elevation
32 GS CIM 111.15 MHz 10 nm / 19 km 319.85° / 316.96° 3.00° 24 ft / 7 m (AMSL)
32 DME CIM 111.15 MHz 18 nm / 33 km - - 24 ft / 7 m (AMSL)
32 LOC-ILS CIM 111.15 MHz 18 nm / 33 km 319.41° / 316.53° - 24 ft / 7 m (AMSL)

Map

Weather


0- 5 10 15 20 25 30 35+ Temperature / °C

Clouds and Precipitation
Forecast for 2018-12-13 18:00 UTC. Updated 2 hours ago

Ground ~20,000 ft ~40,000 ft Winds

METAR

EKSB 131720Z 06011KT 9999 SCT020 BKN060 03/01 Q1026

TAF

Not found

Frequencies

Tower 126.40 MHz AFIS
Warning: Do not use this data for real-world aviation or navigation. No guarantee of current accuracy is given.